Time;durP1;ratioP1;P1;durP2;ratioP2;P2;SDS_P1;SDS_P2;PMS_P1;PMS_P2;Temp;Humidity;BMP_temperature;BMP_pressure;BME280_temperature;BME280_humidity;BME280_pressure;Samples;Min_cycle;Max_cycle;Signal;HPM_P1;HPM_P2
2023/04/22 00:00:27;;;;;;;8.77;7.57;;;14.00;68.60;;;;;;5052042;28;20443;-49
2023/04/22 00:03:00;;;;;;;9.67;7.03;;;14.10;68.90;;;;;;5052155;28;20853;-50
2023/04/22 00:05:27;;;;;;;10.77;7.63;;;14.30;69.20;;;;;;5053320;28;20482;-49
2023/04/22 00:07:54;;;;;;;9.33;6.70;;;14.10;68.60;;;;;;5053615;28;20851;-48
2023/04/22 00:10:23;;;;;;;9.43;7.80;;;13.80;68.80;;;;;;5053037;28;20430;-48
2023/04/22 00:12:50;;;;;;;8.60;7.00;;;14.20;69.30;;;;;;5053541;28;20434;-49
2023/04/22 00:15:20;;;;;;;9.53;7.27;;;13.90;69.00;;;;;;5053399;28;20443;-48
2023/04/22 00:17:49;;;;;;;11.27;7.43;;;13.90;69.10;;;;;;5053164;28;20430;-49
2023/04/22 00:20:16;;;;;;;12.20;7.73;;;14.00;69.40;;;;;;5051386;28;20485;-48
2023/04/22 00:22:43;;;;;;;8.50;6.80;;;13.90;69.40;;;;;;5051861;28;20439;-49
2023/04/22 00:25:10;;;;;;;8.77;7.20;;;13.70;69.30;;;;;;5052889;28;20458;-49
2023/04/22 00:27:37;;;;;;;8.27;7.47;;;13.60;69.20;;;;;;5052940;28;21026;-49
2023/04/22 00:30:04;;;;;;;11.10;7.20;;;13.80;69.50;;;;;;5051299;28;20549;-49
2023/04/22 00:32:31;;;;;;;12.43;7.77;;;13.80;69.70;;;;;;5052700;28;20478;-48
2023/04/22 00:35:00;;;;;;;9.10;6.57;;;13.80;69.60;;;;;;5051994;28;20454;-48
2023/04/22 00:37:27;;;;;;;9.33;8.17;;;13.70;69.80;;;;;;5051589;28;20939;-48
2023/04/22 00:39:54;;;;;;;14.60;6.70;;;13.70;69.60;;;;;;5051281;28;20485;-48
2023/04/22 00:42:21;;;;;;;7.00;6.30;;;13.70;69.70;;;;;;5051603;28;20563;-48
2023/04/22 00:44:50;;;;;;;10.07;6.30;;;13.60;69.50;;;;;;5051350;28;20561;-49
2023/04/22 00:47:17;;;;;;;13.17;7.13;;;13.60;69.60;;;;;;5051326;28;20935;-49
2023/04/22 00:49:45;;;;;;;9.37;7.57;;;13.80;70.70;;;;;;5050757;28;20822;-49
2023/04/22 00:52:13;;;;;;;8.90;6.83;;;13.50;69.60;;;;;;5051448;28;20576;-48
2023/04/22 00:54:40;;;;;;;7.00;6.30;;;13.60;69.80;;;;;;5052429;28;20442;-48
2023/04/22 00:57:07;;;;;;;9.33;6.80;;;13.60;69.80;;;;;;5050877;28;20422;-49
2023/04/22 00:59:42;;;;;;;9.60;7.57;;;13.50;69.70;;;;;;5050975;28;20454;-49
2023/04/22 01:02:09;;;;;;;8.70;7.57;;;13.50;69.60;;;;;;5052441;28;20850;-49
2023/04/22 01:04:38;;;;;;;8.37;7.47;;;13.80;70.00;;;;;;5050763;28;21081;-48
2023/04/22 01:07:05;;;;;;;7.33;6.63;;;13.60;69.80;;;;;;5052224;28;20899;-48
2023/04/22 01:09:37;;;;;;;10.23;7.20;;;13.50;69.70;;;;;;5052026;28;20922;-48
2023/04/22 01:12:04;;;;;;;7.87;7.00;;;13.70;69.90;;;;;;5051203;28;20877;-48
2023/04/22 01:14:35;;;;;;;8.73;7.50;;;13.80;70.00;;;;;;5050743;28;20477;-49
2023/04/22 01:17:05;;;;;;;11.83;6.50;;;13.40;69.70;;;;;;5052301;28;20476;-48
2023/04/22 01:19:37;;;;;;;10.90;7.43;;;13.40;69.70;;;;;;5050583;28;20449;-48
2023/04/22 01:22:07;;;;;;;9.57;7.20;;;13.40;69.90;;;;;;5050871;28;20482;-49
2023/04/22 01:24:38;;;;;;;7.87;6.37;;;13.40;70.00;;;;;;5050800;28;20463;-49
2023/04/22 01:27:05;;;;;;;9.13;6.87;;;13.40;70.10;;;;;;5050807;28;20618;-49
2023/04/22 01:29:36;;;;;;;12.40;7.60;;;13.40;70.10;;;;;;5050598;28;20458;-50
2023/04/22 01:32:04;;;;;;;8.60;7.70;;;13.40;70.20;;;;;;5051979;28;20448;-49
2023/04/22 01:34:31;;;;;;;11.70;7.87;;;13.30;70.10;;;;;;5050875;28;20450;-49
2023/04/22 01:36:58;;;;;;;8.07;7.27;;;13.30;70.20;;;;;;5050949;28;20541;-49
2023/04/22 01:39:25;;;;;;;9.00;7.07;;;13.30;70.30;;;;;;5050350;28;20489;-49
2023/04/22 01:42:00;;;;;;;10.87;7.50;;;13.30;70.40;;;;;;5052137;28;20964;-49
2023/04/22 01:44:28;;;;;;;8.87;7.33;;;13.40;70.60;;;;;;5050535;28;20478;-49
2023/04/22 01:46:58;;;;;;;9.90;7.83;;;13.30;70.60;;;;;;5050722;28;20882;-49
2023/04/22 01:49:30;;;;;;;16.73;7.47;;;13.20;70.60;;;;;;5050324;28;20461;-49
2023/04/22 01:51:57;;;;;;;10.37;7.33;;;13.20;70.70;;;;;;5050678;28;20574;-49
2023/04/22 01:54:24;;;;;;;9.53;7.43;;;13.30;71.00;;;;;;5052948;28;20555;-49
2023/04/22 01:56:54;;;;;;;11.60;7.20;;;13.20;71.00;;;;;;5050891;28;20474;-49
2023/04/22 01:59:21;;;;;;;10.63;7.33;;;13.20;71.00;;;;;;5050527;28;20442;-49
2023/04/22 02:01:56;;;;;;;9.70;7.63;;;13.00;71.00;;;;;;5050442;28;20803;-48
2023/04/22 02:04:23;;;;;;;10.03;7.83;;;13.10;71.20;;;;;;5068689;23;20495;-48
2023/04/22 02:06:55;;;;;;;10.90;8.27;;;13.10;71.20;;;;;;5014057;28;20478;-47
2023/04/22 02:09:22;;;;;;;9.10;7.57;;;13.00;71.20;;;;;;5017526;28;20508;-47
2023/04/22 02:11:49;;;;;;;9.30;7.80;;;13.20;71.50;;;;;;5035468;28;20431;-47
2023/04/22 02:14:18;;;;;;;8.30;6.93;;;13.20;71.60;;;;;;5017603;28;20498;-48
2023/04/22 02:16:45;;;;;;;11.47;7.10;;;13.00;71.60;;;;;;5017859;28;20448;-48
2023/04/22 02:19:12;;;;;;;9.10;7.33;;;13.00;71.60;;;;;;5017293;28;20486;-48
2023/04/22 02:21:39;;;;;;;8.83;7.90;;;13.00;71.80;;;;;;5017711;28;20450;-47
2023/04/22 02:24:06;;;;;;;11.73;7.67;;;13.20;72.00;;;;;;5017653;28;20475;-48
2023/04/22 02:26:33;;;;;;;9.43;7.50;;;12.90;71.70;;;;;;5017482;28;20578;-48
2023/04/22 02:29:05;;;;;;;11.20;7.77;;;12.90;71.60;;;;;;5017056;28;20457;-48
2023/04/22 02:31:40;;;;;;;8.57;7.73;;;12.90;71.60;;;;;;5017559;28;20445;-48
2023/04/22 02:34:07;;;;;;;10.73;8.10;;;12.70;71.60;;;;;;5017189;28;20475;-48
2023/04/22 02:36:37;;;;;;;11.97;8.27;;;13.00;72.20;;;;;;5035136;28;20444;-48
2023/04/22 02:39:08;;;;;;;13.37;8.07;;;13.00;72.40;;;;;;5016956;28;20942;-47
2023/04/22 02:41:35;;;;;;;15.60;8.30;;;12.60;72.30;;;;;;5017315;28;20532;-47
2023/04/22 02:44:03;;;;;;;13.40;8.63;;;12.90;72.70;;;;;;5017077;28;20902;-48
2023/04/22 02:46:30;;;;;;;8.80;7.83;;;12.90;73.00;;;;;;5017125;28;20510;-48
2023/04/22 02:48:58;;;;;;;9.97;8.50;;;12.60;72.70;;;;;;5016979;28;20907;-48
2023/04/22 02:51:25;;;;;;;11.37;8.43;;;12.60;72.80;;;;;;5017168;28;20907;-48
2023/04/22 02:53:53;;;;;;;12.87;9.40;;;12.50;72.80;;;;;;5034644;28;20428;-48
2023/04/22 02:56:20;;;;;;;12.47;8.97;;;12.50;73.00;;;;;;5016993;28;20520;-47
2023/04/22 02:58:48;;;;;;;10.17;8.30;;;12.50;73.20;;;;;;5016730;28;20551;-48
2023/04/22 03:01:15;;;;;;;10.17;8.53;;;12.60;73.30;;;;;;5034612;28;20438;-47
2023/04/22 03:03:48;;;;;;;13.90;9.80;;;12.50;73.30;;;;;;5016767;28;20453;-48
2023/04/22 03:06:27;;;;;;;10.93;9.50;;;12.50;73.50;;;;;;5016907;28;20485;-48
2023/04/22 03:08:55;;;;;;;12.63;9.60;;;12.50;73.70;;;;;;5017055;28;20458;-48
2023/04/22 03:11:22;;;;;;;12.10;8.73;;;12.50;73.60;;;;;;5017545;28;20480;-49
2023/04/22 03:13:49;;;;;;;11.40;8.10;;;12.40;73.60;;;;;;5017050;28;20507;-48
2023/04/22 03:16:17;;;;;;;11.00;8.17;;;12.40;73.60;;;;;;5017237;28;20444;-48
2023/04/22 03:18:45;;;;;;;12.27;8.67;;;12.30;73.60;;;;;;5016839;28;20597;-48
2023/04/22 03:21:12;;;;;;;9.90;8.23;;;12.30;73.70;;;;;;5017281;28;20455;-49
2023/04/22 03:23:42;;;;;;;13.80;9.30;;;12.20;73.70;;;;;;5017312;28;20419;-48
2023/04/22 03:26:09;;;;;;;11.80;8.67;;;12.20;73.80;;;;;;5017234;28;20472;-48
2023/04/22 03:28:36;;;;;;;11.23;8.60;;;12.30;74.10;;;;;;5016426;28;20449;-48
2023/04/22 03:31:03;;;;;;;10.80;8.50;;;12.50;74.40;;;;;;5016070;28;20445;-48
2023/04/22 03:33:30;;;;;;;10.23;8.60;;;12.30;74.30;;;;;;5016138;28;20507;-48
2023/04/22 03:36:06;;;;;;;12.23;8.50;;;12.40;74.60;;;;;;5016475;28;20824;-48
2023/04/22 03:38:33;;;;;;;10.00;8.00;;;12.00;74.10;;;;;;5015774;28;20927;-48
2023/04/22 03:41:02;;;;;;;13.70;8.00;;;12.20;74.60;;;;;;5016114;28;20438;-48
2023/04/22 03:43:37;;;;;;;11.93;9.90;;;12.30;74.90;;;;;;5016769;28;20450;-48
2023/04/22 03:46:08;;;;;;;14.47;9.50;;;12.10;74.90;;;;;;5016323;28;20528;-48
2023/04/22 03:48:38;;;;;;;14.60;9.10;;;12.10;75.00;;;;;;5015803;28;20850;-48
2023/04/22 03:51:10;;;;;;;16.10;9.30;;;12.20;75.40;;;;;;5015982;28;20446;-48
2023/04/22 03:53:40;;;;;;;12.60;8.50;;;12.10;75.40;;;;;;5015934;28;20526;-48
2023/04/22 03:56:10;;;;;;;12.20;9.53;;;12.10;75.90;;;;;;5015866;28;20531;-48
2023/04/22 03:58:41;;;;;;;12.67;10.50;;;12.10;76.20;;;;;;5015814;28;20805;-48
2023/04/22 04:01:10;;;;;;;13.30;9.07;;;12.10;76.30;;;;;;5016084;28;20442;-48
2023/04/22 04:03:41;;;;;;;10.67;8.97;;;12.00;76.20;;;;;;5017782;28;20482;-48
2023/04/22 04:06:09;;;;;;;11.57;8.93;;;12.10;76.50;;;;;;5017646;28;20449;-48
2023/04/22 04:08:37;;;;;;;13.80;9.37;;;11.80;76.10;;;;;;5017591;28;20456;-48
2023/04/22 04:11:04;;;;;;;10.77;9.10;;;11.90;77.00;;;;;;5016981;28;20537;-49
2023/04/22 04:13:33;;;;;;;11.63;8.27;;;12.40;76.70;;;;;;5033355;28;20469;-48
2023/04/22 04:16:15;;;;;;;10.70;9.60;;;12.30;76.50;;;;;;5015577;28;20444;-48
2023/04/22 04:18:43;;;;;;;11.40;8.87;;;12.20;76.50;;;;;;5015982;28;20462;-49
2023/04/22 04:21:14;;;;;;;10.33;8.20;;;11.90;76.20;;;;;;5016055;28;20446;-48
2023/04/22 04:23:49;;;;;;;12.17;9.10;;;12.20;76.50;;;;;;5016042;28;20462;-47
2023/04/22 04:26:17;;;;;;;12.20;9.37;;;12.10;76.40;;;;;;5016284;28;20438;-48
2023/04/22 04:28:49;;;;;;;14.43;8.47;;;12.30;76.80;;;;;;5031642;28;20876;-48
2023/04/22 04:31:18;;;;;;;12.53;8.90;;;12.10;76.70;;;;;;5014526;28;20444;-48
2023/04/22 04:33:46;;;;;;;10.70;9.10;;;12.10;76.70;;;;;;5015178;28;20490;-48
2023/04/22 04:36:14;;;;;;;11.33;9.20;;;12.10;76.80;;;;;;5015307;28;20460;-47
2023/04/22 04:38:43;;;;;;;15.43;9.57;;;12.00;76.60;;;;;;5015148;28;20835;-47
2023/04/22 04:41:10;;;;;;;12.80;8.90;;;12.30;77.00;;;;;;5015192;28;20458;-48
2023/04/22 04:43:39;;;;;;;9.63;8.63;;;12.20;76.90;;;;;;5015025;28;20489;-48
2023/04/22 04:46:20;;;;;;;14.83;10.70;;;12.40;77.90;;;;;;5017662;28;20479;-48
2023/04/22 04:48:49;;;;;;;10.93;9.57;;;12.20;77.00;;;;;;5019564;28;20834;-49
2023/04/22 04:51:16;;;;;;;13.30;9.60;;;12.10;76.80;;;;;;5018675;28;20963;-48
2023/04/22 04:53:50;;;;;;;14.00;9.53;;;12.30;77.10;;;;;;5018613;28;20419;-47
2023/04/22 04:56:17;;;;;;;16.30;10.00;;;12.20;77.00;;;;;;5018106;28;20805;-48
2023/04/22 04:58:45;;;;;;;14.57;10.30;;;12.20;76.80;;;;;;5017936;28;20468;-48
2023/04/22 05:01:19;;;;;;;12.03;9.20;;;12.30;77.00;;;;;;5015557;28;20454;-48
2023/04/22 05:03:47;;;;;;;14.00;9.60;;;12.40;77.00;;;;;;5015244;28;20816;-48
2023/04/22 05:06:17;;;;;;;11.43;9.97;;;12.30;76.90;;;;;;5015221;28;20455;-48
2023/04/22 05:08:48;;;;;;;12.43;9.57;;;12.20;76.90;;;;;;5014829;28;20990;-48
2023/04/22 05:11:15;;;;;;;11.30;9.43;;;12.40;76.90;;;;;;5015074;28;20464;-48
2023/04/22 05:13:48;;;;;;;12.17;9.97;;;12.50;76.90;;;;;;5014604;28;20460;-49
2023/04/22 05:16:23;;;;;;;14.10;9.97;;;12.70;77.00;;;;;;5014521;28;20447;-48
2023/04/22 05:18:50;;;;;;;12.53;10.30;;;12.60;76.60;;;;;;5014120;28;20429;-48
2023/04/22 05:21:19;;;;;;;11.20;9.37;;;12.80;76.50;;;;;;5014480;28;20447;-48
2023/04/22 05:23:46;;;;;;;14.20;10.27;;;12.80;76.20;;;;;;5014470;28;20463;-48
2023/04/22 05:26:17;;;;;;;11.60;9.43;;;13.10;76.10;;;;;;5014817;28;20455;-48
2023/04/22 05:28:47;;;;;;;12.80;9.27;;;13.10;75.80;;;;;;5013962;28;20484;-48
2023/04/22 05:31:16;;;;;;;13.60;10.93;;;13.10;75.60;;;;;;5014626;28;20451;-48
2023/04/22 05:33:48;;;;;;;14.60;10.70;;;13.20;75.40;;;;;;5014302;28;20542;-48
2023/04/22 05:36:15;;;;;;;13.60;9.20;;;13.30;75.30;;;;;;5014512;28;20422;-48
2023/04/22 05:38:43;;;;;;;13.43;9.80;;;13.30;74.90;;;;;;5014291;28;20542;-48
2023/04/22 05:41:10;;;;;;;13.50;10.03;;;13.60;74.80;;;;;;5015012;28;20447;-48
2023/04/22 05:43:37;;;;;;;15.27;10.43;;;13.50;74.40;;;;;;5036598;28;20462;-48
2023/04/22 05:46:13;;;;;;;11.20;9.60;;;13.60;74.40;;;;;;5018820;28;20457;-48
2023/04/22 05:48:41;;;;;;;13.33;10.23;;;13.70;74.10;;;;;;5017872;28;20802;-48
2023/04/22 05:51:19;;;;;;;10.53;9.17;;;13.90;74.10;;;;;;5018153;28;20481;-48
2023/04/22 05:53:46;;;;;;;11.70;9.30;;;14.00;73.80;;;;;;5018590;28;20861;-48
2023/04/22 05:56:13;;;;;;;12.60;11.30;;;14.00;73.30;;;;;;5018017;28;20458;-49
2023/04/22 05:58:40;;;;;;;14.13;10.30;;;14.00;73.20;;;;;;5017508;28;20951;-49
2023/04/22 06:01:11;;;;;;;12.00;9.80;;;14.10;73.20;;;;;;5018111;28;20847;-49
2023/04/22 06:03:56;;;;;;;13.33;10.00;;;14.30;73.00;;;;;;5017883;28;20426;-47
2023/04/22 06:06:26;;;;;;;13.00;10.83;;;14.40;72.80;;;;;;5017946;28;20987;-48
2023/04/22 06:08:53;;;;;;;12.10;10.37;;;14.40;72.50;;;;;;5017321;28;20498;-48
2023/04/22 06:11:20;;;;;;;11.63;10.37;;;14.40;72.30;;;;;;5017743;28;20435;-48
2023/04/22 06:13:47;;;;;;;15.93;10.97;;;14.80;72.60;;;;;;5017879;28;20478;-48
2023/04/22 06:16:19;;;;;;;11.40;10.03;;;14.60;72.00;;;;;;5017715;28;20496;-47
2023/04/22 06:18:48;;;;;;;17.27;10.97;;;14.70;72.00;;;;;;5017386;28;20429;-48
2023/04/22 06:21:19;;;;;;;12.50;10.00;;;14.50;71.60;;;;;;5017698;28;20447;-48
2023/04/22 06:23:47;;;;;;;13.60;9.60;;;14.70;71.60;;;;;;5017736;28;20448;-47
2023/04/22 06:26:15;;;;;;;11.77;9.77;;;14.80;71.30;;;;;;5017377;28;20428;-49
2023/04/22 06:28:45;;;;;;;11.90;10.30;;;14.80;71.30;;;;;;5016983;28;20482;-49
2023/04/22 06:31:17;;;;;;;10.40;9.40;;;14.80;71.30;;;;;;5017299;28;21056;-49
2023/04/22 06:33:46;;;;;;;13.10;10.10;;;14.90;71.30;;;;;;5016987;28;20514;-49
2023/04/22 06:36:14;;;;;;;12.47;9.57;;;15.00;71.40;;;;;;5017049;28;20498;-48
2023/04/22 06:38:43;;;;;;;12.13;10.40;;;15.20;71.60;;;;;;5016877;28;20459;-48
2023/04/22 06:41:32;;;;;;;18.70;10.00;;;15.20;71.50;;;;;;4994389;28;20442;-48
2023/04/22 06:44:04;;;;;;;13.67;10.30;;;15.00;71.20;;;;;;5017250;28;20471;-49
2023/04/22 06:47:05;;;;;;;12.03;9.17;;;15.10;71.20;;;;;;5017257;28;20448;-47
2023/04/22 06:49:45;;;;;;;12.97;10.10;;;15.10;71.10;;;;;;5016957;28;20924;-47
2023/04/22 06:52:21;;;;;;;13.17;9.80;;;15.00;71.40;;;;;;5017105;28;20904;-47
2023/04/22 06:54:48;;;;;;;16.23;10.03;;;15.00;71.70;;;;;;5015840;28;20479;-47
2023/04/22 06:57:16;;;;;;;11.43;9.43;;;15.20;71.10;;;;;;5016580;28;20451;-48
2023/04/22 06:59:44;;;;;;;11.10;9.63;;;15.20;71.00;;;;;;5016578;28;20551;-48
2023/04/22 07:02:14;;;;;;;13.30;9.90;;;15.10;70.90;;;;;;5016633;28;20505;-48
2023/04/22 07:04:46;;;;;;;15.67;8.70;;;15.30;71.00;;;;;;5032959;28;20497;-47
2023/04/22 07:07:16;;;;;;;18.57;9.63;;;15.40;71.10;;;;;;5032867;28;20963;-48
2023/04/22 07:09:46;;;;;;;11.97;9.57;;;15.30;71.00;;;;;;5016383;28;20979;-47
2023/04/22 07:12:20;;;;;;;19.40;9.97;;;15.20;70.80;;;;;;5016732;28;20513;-48
2023/04/22 07:14:49;;;;;;;12.20;10.33;;;15.40;70.80;;;;;;5016587;28;20498;-48
2023/04/22 07:17:18;;;;;;;12.17;9.33;;;15.40;70.50;;;;;;5034627;28;20436;-48
2023/04/22 07:19:45;;;;;;;13.20;10.67;;;15.40;70.40;;;;;;5034506;28;20438;-49
2023/04/22 07:22:12;;;;;;;10.93;9.83;;;15.50;70.60;;;;;;5016932;28;20483;-49
2023/04/22 07:24:39;;;;;;;11.37;9.70;;;15.60;70.60;;;;;;5017127;28;20498;-48
2023/04/22 07:27:07;;;;;;;10.37;9.27;;;15.60;70.40;;;;;;5034011;28;20422;-48
2023/04/22 07:29:35;;;;;;;11.10;10.00;;;15.60;71.10;;;;;;5034277;28;20507;-50
2023/04/22 07:32:02;;;;;;;14.30;9.30;;;15.60;71.00;;;;;;5035102;28;20582;-48
2023/04/22 07:34:29;;;;;;;11.10;10.00;;;15.80;70.20;;;;;;5016437;28;20476;-48
2023/04/22 07:36:58;;;;;;;10.97;9.33;;;16.00;70.00;;;;;;5015802;28;20456;-49
2023/04/22 07:39:25;;;;;;;12.23;9.77;;;15.90;69.40;;;;;;5033418;28;20428;-47
2023/04/22 07:41:55;;;;;;;10.93;9.83;;;15.70;69.10;;;;;;5033681;28;20462;-48
2023/04/22 07:44:22;;;;;;;11.33;9.57;;;15.70;68.80;;;;;;5033709;28;20827;-49
2023/04/22 07:46:56;;;;;;;10.97;9.07;;;16.10;69.20;;;;;;5015750;28;20449;-48
2023/04/22 07:49:30;;;;;;;10.00;9.03;;;15.80;68.70;;;;;;5032954;28;20509;-48
2023/04/22 07:52:01;;;;;;;9.67;8.77;;;16.30;69.30;;;;;;5033585;28;20429;-49
2023/04/22 07:54:28;;;;;;;12.77;9.20;;;16.20;69.00;;;;;;5033271;28;20463;-48
2023/04/22 07:56:57;;;;;;;11.27;9.40;;;15.90;68.80;;;;;;5033378;28;20861;-49
2023/04/22 07:59:26;;;;;;;11.40;10.30;;;16.00;68.80;;;;;;5032759;28;20464;-48
2023/04/22 08:01:54;;;;;;;14.30;9.97;;;16.00;68.80;;;;;;5015487;28;21009;-49
2023/04/22 08:04:25;;;;;;;9.20;8.30;;;16.20;68.70;;;;;;5033158;28;20986;-49
2023/04/22 08:06:53;;;;;;;11.90;10.27;;;16.30;68.90;;;;;;5032362;28;20420;-47
2023/04/22 08:09:20;;;;;;;9.97;8.93;;;16.30;68.80;;;;;;5032777;28;20841;-47
2023/04/22 08:11:47;;;;;;;11.73;9.30;;;16.40;68.90;;;;;;5033014;28;20547;-50
2023/04/22 08:14:17;;;;;;;13.30;8.40;;;16.10;68.60;;;;;;5014864;28;20976;-48
2023/04/22 08:16:44;;;;;;;10.73;9.63;;;16.30;68.70;;;;;;5032701;28;20531;-48
2023/04/22 08:19:12;;;;;;;12.80;9.93;;;16.40;68.40;;;;;;5014543;28;20417;-48
2023/04/22 08:21:39;;;;;;;14.63;8.60;;;16.50;67.90;;;;;;5015092;28;20444;-47
2023/04/22 08:24:06;;;;;;;11.40;9.40;;;16.50;68.10;;;;;;5032664;28;20962;-49
2023/04/22 08:26:33;;;;;;;11.80;9.20;;;16.60;67.80;;;;;;5032522;28;20460;-48
2023/04/22 08:29:01;;;;;;;14.20;9.93;;;16.60;67.80;;;;;;5032256;28;20497;-48
2023/04/22 08:31:28;;;;;;;10.20;8.63;;;16.70;68.00;;;;;;5032793;28;20479;-49
2023/04/22 08:33:57;;;;;;;10.10;8.80;;;16.60;67.70;;;;;;5032555;28;20452;-48
2023/04/22 08:36:26;;;;;;;11.20;8.67;;;16.70;67.80;;;;;;5014926;28;20523;-49
2023/04/22 08:38:54;;;;;;;11.67;9.10;;;16.80;67.80;;;;;;5014336;28;20441;-48
2023/04/22 08:41:23;;;;;;;12.17;9.03;;;16.90;68.10;;;;;;5014659;28;20465;-49
2023/04/22 08:43:50;;;;;;;10.07;8.07;;;16.80;67.40;;;;;;5032085;28;20460;-47
2023/04/22 08:46:19;;;;;;;13.77;8.90;;;16.80;67.30;;;;;;5032611;28;20437;-49
2023/04/22 08:48:48;;;;;;;9.33;8.33;;;16.70;67.10;;;;;;5031804;28;20471;-48
2023/04/22 08:51:16;;;;;;;11.60;8.63;;;17.00;67.10;;;;;;5032247;28;20441;-48
2023/04/22 08:53:45;;;;;;;8.93;8.10;;;17.00;67.00;;;;;;5032508;28;20805;-47
2023/04/22 08:56:13;;;;;;;13.67;8.83;;;17.00;67.00;;;;;;5032018;28;20468;-48
2023/04/22 08:58:41;;;;;;;11.03;8.90;;;17.20;67.50;;;;;;5031844;28;20433;-47
2023/04/22 09:01:13;;;;;;;11.33;9.73;;;17.00;67.00;;;;;;5014552;28;20485;-47
2023/04/22 09:03:45;;;;;;;8.73;7.57;;;17.00;66.70;;;;;;5032492;28;20923;-48
2023/04/22 09:06:19;;;;;;;10.37;9.13;;;16.90;66.50;;;;;;5032395;28;20442;-48
2023/04/22 09:08:49;;;;;;;9.80;8.40;;;17.00;66.50;;;;;;5013550;28;20529;-48
2023/04/22 09:11:25;;;;;;;13.23;8.80;;;17.20;66.80;;;;;;5014358;28;20976;-48
2023/04/22 09:14:01;;;;;;;11.27;8.47;;;17.40;67.00;;;;;;5032172;28;20450;-47
2023/04/22 09:16:31;;;;;;;9.37;7.50;;;17.30;67.50;;;;;;5032117;28;20944;-48
2023/04/22 09:19:01;;;;;;;10.27;8.17;;;17.30;66.50;;;;;;5012785;28;20446;-49
2023/04/22 09:21:28;;;;;;;8.37;7.57;;;17.50;66.50;;;;;;5032077;28;20521;-48
2023/04/22 09:23:58;;;;;;;9.47;7.97;;;17.10;66.00;;;;;;5031648;28;20453;-48
2023/04/22 09:26:26;;;;;;;9.60;8.03;;;17.40;66.30;;;;;;5032031;28;20442;-47
2023/04/22 09:28:53;;;;;;;8.53;7.60;;;17.70;66.60;;;;;;5031468;28;20477;-47
2023/04/22 09:31:21;;;;;;;11.23;8.57;;;17.80;66.30;;;;;;5031368;28;20858;-47
2023/04/22 09:33:50;;;;;;;12.80;8.17;;;17.50;66.20;;;;;;5031256;28;20953;-48
2023/04/22 09:36:17;;;;;;;9.93;8.40;;;17.40;66.20;;;;;;5031473;28;20532;-48
2023/04/22 09:39:04;;;;;;;10.07;7.57;;;17.40;65.30;;;;;;5031397;28;20434;-48
2023/04/22 09:41:33;;;;;;;8.90;6.67;;;17.70;65.00;;;;;;5031795;28;20492;-47
2023/04/22 09:44:01;;;;;;;9.20;7.10;;;17.90;64.90;;;;;;5031367;28;20454;-48
2023/04/22 09:46:30;;;;;;;7.47;5.90;;;18.10;65.00;;;;;;5031832;28;20507;-48
2023/04/22 09:48:58;;;;;;;9.67;6.40;;;18.10;64.70;;;;;;5031642;28;20485;-48
2023/04/22 09:51:27;;;;;;;9.60;6.77;;;17.90;64.20;;;;;;5032235;28;20442;-48
2023/04/22 09:54:03;;;;;;;9.37;7.37;;;18.00;64.30;;;;;;5031737;28;20856;-48
2023/04/22 09:56:49;;;;;;;7.87;6.53;;;18.20;64.10;;;;;;5031931;28;20469;-49
2023/04/22 09:59:21;;;;;;;14.37;6.97;;;18.30;64.20;;;;;;5031342;28;20449;-48
2023/04/22 10:01:49;;;;;;;10.90;6.70;;;18.20;64.20;;;;;;5032164;28;20450;-48
2023/04/22 10:04:20;;;;;;;7.93;7.10;;;18.20;63.80;;;;;;5031755;28;20451;-48
2023/04/22 10:06:46;;;;;;;8.73;7.53;;;18.30;63.90;;;;;;5031437;28;20788;-48
2023/04/22 10:09:14;;;;;;;10.10;7.33;;;17.90;63.60;;;;;;5031284;28;20479;-48
2023/04/22 10:11:41;;;;;;;6.47;5.83;;;18.50;64.10;;;;;;5031917;28;20458;-47
2023/04/22 10:14:10;;;;;;;8.00;6.10;;;18.50;63.40;;;;;;5031665;28;20458;-49
2023/04/22 10:16:38;;;;;;;7.70;6.50;;;18.40;63.30;;;;;;5032472;28;20777;-48
2023/04/22 10:19:07;;;;;;;13.70;7.83;;;18.70;63.20;;;;;;5032591;28;20447;-49
2023/04/22 10:21:34;;;;;;;11.43;7.13;;;18.40;62.80;;;;;;5033021;28;20449;-48
2023/04/22 10:24:01;;;;;;;11.30;5.87;;;18.50;62.50;;;;;;5032676;28;20471;-49
2023/04/22 10:26:42;;;;;;;9.10;6.17;;;18.40;62.10;;;;;;5032785;28;20447;-48
2023/04/22 10:29:15;;;;;;;10.67;6.47;;;18.50;61.60;;;;;;5033521;28;20482;-47
2023/04/22 10:31:43;;;;;;;7.97;6.60;;;18.60;61.60;;;;;;5036702;28;20438;-49
2023/04/22 10:34:11;;;;;;;10.53;6.27;;;18.60;61.40;;;;;;5035492;28;20490;-48
2023/04/22 10:36:53;;;;;;;9.40;6.40;;;18.80;61.90;;;;;;5034665;28;20481;-48
2023/04/22 10:39:21;;;;;;;7.10;5.63;;;18.80;61.40;;;;;;5034493;28;20443;-48
2023/04/22 10:41:52;;;;;;;8.10;6.50;;;19.00;61.20;;;;;;5034684;28;20439;-47
2023/04/22 10:44:21;;;;;;;10.77;6.30;;;18.70;60.20;;;;;;5034625;28;20951;-48
2023/04/22 10:47:01;;;;;;;6.90;5.53;;;19.00;60.10;;;;;;5034617;28;20493;-50
2023/04/22 10:49:34;;;;;;;10.53;6.57;;;18.80;59.40;;;;;;5034112;28;20475;-48
2023/04/22 10:52:02;;;;;;;12.67;7.30;;;19.00;59.40;;;;;;5033894;28;20707;-48
2023/04/22 10:54:59;;;;;;;7.30;6.60;;;19.00;59.30;;;;;;5034398;28;21048;-48
2023/04/22 10:57:36;;;;;;;10.50;6.90;;;19.10;58.20;;;;;;5034824;28;20448;-48
2023/04/22 11:00:38;;;;;;;7.73;5.80;;;19.30;58.80;;;;;;5034309;28;20437;-48
2023/04/22 11:03:17;;;;;;;8.27;6.23;;;19.10;58.10;;;;;;5029008;28;20450;-48
2023/04/22 11:05:45;;;;;;;16.00;5.33;;;19.00;57.30;;;;;;5033888;28;20476;-48
2023/04/22 11:08:15;;;;;;;13.13;7.63;;;19.50;58.10;;;;;;5034002;28;20469;-49
2023/04/22 11:10:44;;;;;;;10.77;5.70;;;18.90;57.80;;;;;;5034223;28;20483;-47
2023/04/22 11:13:13;;;;;;;9.50;6.00;;;18.90;57.70;;;;;;5033956;28;20431;-48
2023/04/22 11:15:41;;;;;;;9.80;7.10;;;19.10;57.90;;;;;;5016035;28;20877;-48
2023/04/22 11:18:10;;;;;;;7.03;6.07;;;19.40;57.80;;;;;;5033342;28;20924;-49
2023/04/22 11:20:38;;;;;;;8.37;5.80;;;19.40;57.60;;;;;;5034155;28;20945;-48
2023/04/22 11:23:05;;;;;;;10.40;6.30;;;19.40;57.50;;;;;;5033598;28;20503;-48
2023/04/22 11:25:32;;;;;;;12.37;6.80;;;19.70;58.00;;;;;;5033790;28;20460;-48
2023/04/22 11:27:59;;;;;;;7.70;6.20;;;19.60;57.90;;;;;;5034573;28;20439;-49
2023/04/22 11:30:27;;;;;;;7.17;5.57;;;19.40;57.30;;;;;;5035412;28;20479;-49
2023/04/22 11:32:55;;;;;;;9.57;6.13;;;19.50;55.80;;;;;;5035781;28;20762;-49
2023/04/22 11:35:23;;;;;;;6.27;5.67;;;19.60;56.00;;;;;;5036028;28;20464;-48
2023/04/22 11:37:54;;;;;;;11.07;6.80;;;19.30;55.80;;;;;;5036989;28;20431;-48
2023/04/22 11:40:24;;;;;;;5.93;5.30;;;19.70;56.10;;;;;;5036586;28;20436;-49
2023/04/22 11:42:51;;;;;;;7.90;6.03;;;19.40;54.90;;;;;;5035832;28;20476;-48
2023/04/22 11:45:18;;;;;;;9.73;6.00;;;19.20;55.10;;;;;;5016888;28;20468;-48
2023/04/22 11:47:45;;;;;;;6.43;5.87;;;19.30;55.30;;;;;;5034387;28;20440;-49
2023/04/22 11:50:13;;;;;;;11.20;7.83;;;20.00;56.20;;;;;;5034260;28;20507;-48
2023/04/22 11:52:45;;;;;;;11.10;6.83;;;19.70;56.20;;;;;;5034408;28;20429;-47
2023/04/22 11:55:14;;;;;;;7.67;6.43;;;19.60;56.00;;;;;;5034173;28;20541;-48
2023/04/22 11:57:41;;;;;;;7.97;6.63;;;19.70;55.70;;;;;;5033294;28;20469;-49
2023/04/22 12:00:12;;;;;;;8.33;6.67;;;19.70;55.60;;;;;;5015158;28;20980;-48
2023/04/22 12:02:39;;;;;;;8.57;6.10;;;19.90;55.40;;;;;;5033475;28;20439;-48
2023/04/22 12:05:11;;;;;;;7.03;6.33;;;20.00;55.50;;;;;;5033168;28;20492;-49
2023/04/22 12:07:37;;;;;;;7.50;5.80;;;20.10;55.10;;;;;;5033454;28;20491;-48
2023/04/22 12:10:06;;;;;;;7.67;5.77;;;19.80;55.10;;;;;;5033289;28;20507;-49
2023/04/22 12:12:36;;;;;;;8.80;6.73;;;19.90;55.20;;;;;;5033388;28;20444;-49
2023/04/22 12:15:10;;;;;;;6.90;6.20;;;19.80;55.00;;;;;;5033259;28;20475;-48
2023/04/22 12:17:37;;;;;;;6.90;6.20;;;20.20;55.40;;;;;;5033020;28;20451;-48
2023/04/22 12:20:06;;;;;;;7.60;6.27;;;20.20;55.60;;;;;;5015191;28;20450;-48
2023/04/22 12:22:33;;;;;;;10.53;6.07;;;20.10;55.20;;;;;;5032421;28;20438;-49
2023/04/22 12:25:00;;;;;;;7.90;5.50;;;19.80;54.50;;;;;;5032455;28;20461;-48
2023/04/22 12:27:27;;;;;;;7.03;6.33;;;20.20;54.70;;;;;;5032744;28;20446;-48
2023/04/22 12:29:56;;;;;;;8.90;6.07;;;20.30;54.50;;;;;;5032010;28;20901;-49
2023/04/22 12:32:25;;;;;;;11.23;6.30;;;20.10;54.20;;;;;;5032904;28;20950;-49
2023/04/22 12:34:52;;;;;;;9.30;6.33;;;20.30;54.50;;;;;;5032037;28;20589;-49
2023/04/22 12:37:19;;;;;;;8.47;6.03;;;20.30;54.50;;;;;;5032226;28;20456;-48
2023/04/22 12:39:46;;;;;;;8.40;5.70;;;20.40;54.60;;;;;;5032364;28;20436;-50
2023/04/22 12:42:12;;;;;;;6.70;5.60;;;20.40;54.00;;;;;;5032783;28;20442;-49
2023/04/22 12:44:40;;;;;;;7.43;5.83;;;20.40;53.10;;;;;;5032697;28;20996;-49
2023/04/22 12:47:08;;;;;;;9.20;5.80;;;20.40;53.40;;;;;;5032804;28;20442;-48
2023/04/22 12:49:36;;;;;;;7.13;6.30;;;20.40;53.30;;;;;;5032526;28;20473;-49